sensor_id;sensor_type;location;lat;lon;timestamp;pressure;altitude;pressure_sealevel;temperature;humidity
9839;BME280;4958;48.150;11.506;2023-05-09T00:02:26;95937.03;;;14.75;58.63
9839;BME280;4958;48.150;11.506;2023-05-09T00:04:56;95938.25;;;14.79;58.54
9839;BME280;4958;48.150;11.506;2023-05-09T00:07:23;95942.84;;;14.83;58.99
9839;BME280;4958;48.150;11.506;2023-05-09T00:09:54;95936.84;;;14.83;57.89
9839;BME280;4958;48.150;11.506;2023-05-09T00:12:21;95931.47;;;14.78;58.83
9839;BME280;4958;48.150;11.506;2023-05-09T00:35:09;95922.25;;;14.62;59.33
9839;BME280;4958;48.150;11.506;2023-05-09T00:37:35;95920.56;;;14.48;59.98
9839;BME280;4958;48.150;11.506;2023-05-09T00:40:03;95919.56;;;14.49;59.36
9839;BME280;4958;48.150;11.506;2023-05-09T00:42:30;95918.22;;;14.53;59.81
9839;BME280;4958;48.150;11.506;2023-05-09T00:45:44;95917.59;;;14.51;59.74
9839;BME280;4958;48.150;11.506;2023-05-09T00:48:05;95923.44;;;14.66;59.54
9839;BME280;4958;48.150;11.506;2023-05-09T00:50:33;95917.06;;;14.69;59.26
9839;BME280;4958;48.150;11.506;2023-05-09T00:53:02;95918.78;;;14.42;59.82
9839;BME280;4958;48.150;11.506;2023-05-09T00:55:29;95917.19;;;14.47;60.14
9839;BME280;4958;48.150;11.506;2023-05-09T00:57:57;95917.84;;;14.63;60.07
9839;BME280;4958;48.150;11.506;2023-05-09T01:00:23;95905.75;;;14.76;59.54
9839;BME280;4958;48.150;11.506;2023-05-09T01:02:52;95903.97;;;14.83;59.39
9839;BME280;4958;48.150;11.506;2023-05-09T01:05:36;95907.47;;;14.56;59.52
9839;BME280;4958;48.150;11.506;2023-05-09T01:08:12;95906.38;;;14.44;60.07
9839;BME280;4958;48.150;11.506;2023-05-09T01:10:44;95904.31;;;14.33;60.29
9839;BME280;4958;48.150;11.506;2023-05-09T01:13:26;95898.91;;;14.28;60.59
9839;BME280;4958;48.150;11.506;2023-05-09T01:16:00;95888.31;;;14.16;61.39
9839;BME280;4958;48.150;11.506;2023-05-09T01:18:34;95891.19;;;14.00;62.16
9839;BME280;4958;48.150;11.506;2023-05-09T01:21:09;95888.50;;;13.87;62.95
9839;BME280;4958;48.150;11.506;2023-05-09T01:27:10;95884.88;;;14.09;62.36
9839;BME280;4958;48.150;11.506;2023-05-09T01:29:55;95884.41;;;13.99;62.50
9839;BME280;4958;48.150;11.506;2023-05-09T01:32:25;95876.34;;;13.80;62.76
9839;BME280;4958;48.150;11.506;2023-05-09T01:34:54;95875.78;;;13.85;62.36
9839;BME280;4958;48.150;11.506;2023-05-09T01:37:23;95875.38;;;13.88;62.82
9839;BME280;4958;48.150;11.506;2023-05-09T01:39:55;95885.53;;;13.83;62.93
9839;BME280;4958;48.150;11.506;2023-05-09T01:42:24;95888.31;;;13.88;63.02
9839;BME280;4958;48.150;11.506;2023-05-09T01:44:54;95885.22;;;13.99;62.26
9839;BME280;4958;48.150;11.506;2023-05-09T01:47:25;95884.75;;;13.89;61.22
9839;BME280;4958;48.150;11.506;2023-05-09T01:49:52;95876.28;;;13.74;61.19
9839;BME280;4958;48.150;11.506;2023-05-09T01:52:22;95875.66;;;13.65;61.89
9839;BME280;4958;48.150;11.506;2023-05-09T01:54:57;95869.63;;;13.58;62.46
9839;BME280;4958;48.150;11.506;2023-05-09T01:57:24;95877.19;;;13.60;62.36
9839;BME280;4958;48.150;11.506;2023-05-09T01:59:54;95870.59;;;13.57;62.45
9839;BME280;4958;48.150;11.506;2023-05-09T02:02:21;95868.31;;;13.47;62.74
9839;BME280;4958;48.150;11.506;2023-05-09T02:04:55;95860.00;;;13.52;61.95
9839;BME280;4958;48.150;11.506;2023-05-09T02:07:22;95865.19;;;13.52;62.46
9839;BME280;4958;48.150;11.506;2023-05-09T02:09:50;95873.03;;;13.37;62.73
9839;BME280;4958;48.150;11.506;2023-05-09T02:12:18;95862.69;;;13.37;62.82
9839;BME280;4958;48.150;11.506;2023-05-09T02:14:45;95862.31;;;13.40;63.20
9839;BME280;4958;48.150;11.506;2023-05-09T02:17:15;95857.97;;;13.47;63.28
9839;BME280;4958;48.150;11.506;2023-05-09T02:19:42;95858.56;;;13.43;63.02
9839;BME280;4958;48.150;11.506;2023-05-09T02:22:12;95853.00;;;13.46;62.76
9839;BME280;4958;48.150;11.506;2023-05-09T02:24:43;95857.38;;;13.45;62.82
9839;BME280;4958;48.150;11.506;2023-05-09T02:27:10;95860.19;;;13.51;62.50
9839;BME280;4958;48.150;11.506;2023-05-09T02:29:43;95854.22;;;13.50;62.72
9839;BME280;4958;48.150;11.506;2023-05-09T02:32:15;95851.22;;;13.46;62.29
9839;BME280;4958;48.150;11.506;2023-05-09T02:34:42;95846.06;;;13.46;62.70
9839;BME280;4958;48.150;11.506;2023-05-09T02:37:12;95846.00;;;13.40;62.86
9839;BME280;4958;48.150;11.506;2023-05-09T02:39:39;95848.31;;;13.56;62.92
9839;BME280;4958;48.150;11.506;2023-05-09T02:42:07;95849.63;;;13.45;62.09
9839;BME280;4958;48.150;11.506;2023-05-09T02:44:34;95843.41;;;13.40;62.59
9839;BME280;4958;48.150;11.506;2023-05-09T02:47:03;95844.03;;;13.42;62.90
9839;BME280;4958;48.150;11.506;2023-05-09T02:49:32;95843.16;;;13.35;62.53
9839;BME280;4958;48.150;11.506;2023-05-09T02:51:59;95842.97;;;13.36;63.15
9839;BME280;4958;48.150;11.506;2023-05-09T02:54:28;95841.38;;;13.35;62.95
9839;BME280;4958;48.150;11.506;2023-05-09T02:56:54;95829.69;;;13.39;62.96
9839;BME280;4958;48.150;11.506;2023-05-09T02:59:21;95837.94;;;13.28;63.27
9839;BME280;4958;48.150;11.506;2023-05-09T03:01:50;95836.25;;;13.42;62.98
9839;BME280;4958;48.150;11.506;2023-05-09T03:04:16;95836.09;;;13.50;63.14
9839;BME280;4958;48.150;11.506;2023-05-09T03:06:45;95836.81;;;13.37;63.64
9839;BME280;4958;48.150;11.506;2023-05-09T03:09:11;95831.22;;;13.34;63.52
9839;BME280;4958;48.150;11.506;2023-05-09T03:11:38;95830.28;;;13.41;62.94
9839;BME280;4958;48.150;11.506;2023-05-09T03:14:04;95837.00;;;13.36;63.35
9839;BME280;4958;48.150;11.506;2023-05-09T03:16:35;95830.78;;;13.30;63.28
9839;BME280;4958;48.150;11.506;2023-05-09T03:19:01;95830.16;;;13.28;63.57
9839;BME280;4958;48.150;11.506;2023-05-09T03:21:28;95841.00;;;13.38;63.48
9839;BME280;4958;48.150;11.506;2023-05-09T03:23:58;95835.78;;;13.32;63.55
9839;BME280;4958;48.150;11.506;2023-05-09T03:26:26;95831.78;;;13.29;64.33
9839;BME280;4958;48.150;11.506;2023-05-09T03:28:52;95829.19;;;13.29;64.41
9839;BME280;4958;48.150;11.506;2023-05-09T03:31:18;95825.78;;;13.29;64.23
9839;BME280;4958;48.150;11.506;2023-05-09T03:33:45;95828.59;;;13.27;64.53
9839;BME280;4958;48.150;11.506;2023-05-09T03:36:11;95830.84;;;13.37;64.54
9839;BME280;4958;48.150;11.506;2023-05-09T03:38:38;95829.25;;;13.36;64.70
9839;BME280;4958;48.150;11.506;2023-05-09T03:41:06;95823.22;;;13.29;65.24
9839;BME280;4958;48.150;11.506;2023-05-09T03:43:32;95831.66;;;13.37;64.81
9839;BME280;4958;48.150;11.506;2023-05-09T03:45:58;95829.69;;;13.18;65.79
9839;BME280;4958;48.150;11.506;2023-05-09T03:48:31;95833.97;;;13.26;65.68
9839;BME280;4958;48.150;11.506;2023-05-09T03:50:58;95823.44;;;13.27;65.62
9839;BME280;4958;48.150;11.506;2023-05-09T03:53:29;95827.38;;;13.23;65.62
9839;BME280;4958;48.150;11.506;2023-05-09T03:55:56;95831.22;;;12.91;66.96
9839;BME280;4958;48.150;11.506;2023-05-09T03:58:24;95824.06;;;12.93;66.91
9839;BME280;4958;48.150;11.506;2023-05-09T04:00:50;95828.50;;;12.99;66.88
9839;BME280;4958;48.150;11.506;2023-05-09T04:03:17;95822.03;;;13.10;66.53
9839;BME280;4958;48.150;11.506;2023-05-09T04:05:44;95829.25;;;13.14;66.30
9839;BME280;4958;48.150;11.506;2023-05-09T04:08:13;95831.81;;;13.14;66.29
9839;BME280;4958;48.150;11.506;2023-05-09T04:10:40;95834.78;;;13.11;66.09
9839;BME280;4958;48.150;11.506;2023-05-09T04:13:06;95833.56;;;13.07;65.73
9839;BME280;4958;48.150;11.506;2023-05-09T04:15:40;95834.03;;;12.96;66.19
9839;BME280;4958;48.150;11.506;2023-05-09T04:18:13;95840.56;;;12.92;66.33
9839;BME280;4958;48.150;11.506;2023-05-09T04:20:39;95839.84;;;12.98;65.82
9839;BME280;4958;48.150;11.506;2023-05-09T04:23:06;95841.13;;;13.09;65.80
9839;BME280;4958;48.150;11.506;2023-05-09T04:25:32;95836.88;;;13.01;66.15
9839;BME280;4958;48.150;11.506;2023-05-09T04:27:59;95838.75;;;13.07;66.15
9839;BME280;4958;48.150;11.506;2023-05-09T04:30:26;95844.50;;;13.09;66.41
9839;BME280;4958;48.150;11.506;2023-05-09T04:32:56;95843.16;;;13.13;65.69
9839;BME280;4958;48.150;11.506;2023-05-09T04:35:37;95832.28;;;13.18;66.39
9839;BME280;4958;48.150;11.506;2023-05-09T04:38:03;95832.09;;;13.20;65.95
9839;BME280;4958;48.150;11.506;2023-05-09T04:40:30;95827.38;;;13.23;66.20
9839;BME280;4958;48.150;11.506;2023-05-09T04:42:57;95829.59;;;13.26;66.31
9839;BME280;4958;48.150;11.506;2023-05-09T04:45:29;95821.31;;;13.37;65.68
9839;BME280;4958;48.150;11.506;2023-05-09T04:48:04;95828.63;;;13.34;65.91
9839;BME280;4958;48.150;11.506;2023-05-09T04:50:30;95813.34;;;13.39;64.76
9839;BME280;4958;48.150;11.506;2023-05-09T04:52:57;95822.16;;;13.44;65.78
9839;BME280;4958;48.150;11.506;2023-05-09T04:55:23;95817.59;;;13.46;65.48
9839;BME280;4958;48.150;11.506;2023-05-09T04:57:50;95822.78;;;13.46;64.55
9839;BME280;4958;48.150;11.506;2023-05-09T05:00:28;95827.97;;;13.53;64.57
9839;BME280;4958;48.150;11.506;2023-05-09T05:02:55;95823.28;;;13.63;64.46
9839;BME280;4958;48.150;11.506;2023-05-09T05:05:23;95823.69;;;13.67;63.85
9839;BME280;4958;48.150;11.506;2023-05-09T05:07:50;95816.41;;;13.77;65.97
9839;BME280;4958;48.150;11.506;2023-05-09T05:10:20;95814.84;;;13.82;64.49
9839;BME280;4958;48.150;11.506;2023-05-09T05:12:54;95821.06;;;13.95;65.71
9839;BME280;4958;48.150;11.506;2023-05-09T05:15:20;95812.88;;;13.91;62.26
9839;BME280;4958;48.150;11.506;2023-05-09T05:17:47;95817.13;;;13.99;65.21
9839;BME280;4958;48.150;11.506;2023-05-09T05:20:14;95824.31;;;14.10;63.72
9839;BME280;4958;48.150;11.506;2023-05-09T05:22:50;95812.63;;;14.21;61.50
9839;BME280;4958;48.150;11.506;2023-05-09T05:25:18;95813.63;;;14.20;62.21
9839;BME280;4958;48.150;11.506;2023-05-09T05:27:46;95814.00;;;14.16;61.99
9839;BME280;4958;48.150;11.506;2023-05-09T05:30:13;95809.84;;;14.22;61.75
9839;BME280;4958;48.150;11.506;2023-05-09T05:32:43;95815.06;;;14.35;61.60
9839;BME280;4958;48.150;11.506;2023-05-09T05:35:23;95804.06;;;14.27;60.37
9839;BME280;4958;48.150;11.506;2023-05-09T05:38:22;95812.88;;;14.32;60.62
9839;BME280;4958;48.150;11.506;2023-05-09T05:40:48;95814.06;;;14.30;60.63
9839;BME280;4958;48.150;11.506;2023-05-09T05:43:15;95814.84;;;14.30;61.13
9839;BME280;4958;48.150;11.506;2023-05-09T05:45:49;95809.69;;;14.37;61.11
9839;BME280;4958;48.150;11.506;2023-05-09T05:48:15;95806.19;;;14.51;60.21
9839;BME280;4958;48.150;11.506;2023-05-09T05:50:42;95794.22;;;14.50;60.20
9839;BME280;4958;48.150;11.506;2023-05-09T05:53:10;95805.38;;;14.50;59.49
9839;BME280;4958;48.150;11.506;2023-05-09T05:55:42;95801.22;;;14.56;59.97
9839;BME280;4958;48.150;11.506;2023-05-09T05:58:17;95799.22;;;14.65;59.48
9839;BME280;4958;48.150;11.506;2023-05-09T06:01:13;95800.41;;;14.56;59.50
9839;BME280;4958;48.150;11.506;2023-05-09T06:03:43;95795.03;;;14.57;59.69
9839;BME280;4958;48.150;11.506;2023-05-09T06:06:09;95787.72;;;14.80;59.83
9839;BME280;4958;48.150;11.506;2023-05-09T06:08:36;95791.09;;;14.88;59.28
9839;BME280;4958;48.150;11.506;2023-05-09T06:11:22;95779.34;;;15.05;59.86
9839;BME280;4958;48.150;11.506;2023-05-09T06:13:48;95780.72;;;15.20;58.74
9839;BME280;4958;48.150;11.506;2023-05-09T06:16:17;95776.34;;;15.21;58.78
9839;BME280;4958;48.150;11.506;2023-05-09T06:19:12;95780.56;;;15.35;58.93
9839;BME280;4958;48.150;11.506;2023-05-09T06:21:40;95773.72;;;15.41;58.41
9839;BME280;4958;48.150;11.506;2023-05-09T06:24:16;95774.72;;;15.46;58.82
9839;BME280;4958;48.150;11.506;2023-05-09T06:26:44;95776.94;;;15.43;58.73
9839;BME280;4958;48.150;11.506;2023-05-09T06:29:10;95775.13;;;15.43;59.08
9839;BME280;4958;48.150;11.506;2023-05-09T06:31:42;95773.53;;;15.49;59.14
9839;BME280;4958;48.150;11.506;2023-05-09T06:34:20;95774.13;;;15.51;59.26
9839;BME280;4958;48.150;11.506;2023-05-09T06:36:46;95771.34;;;15.72;58.21
9839;BME280;4958;48.150;11.506;2023-05-09T06:39:13;95768.34;;;15.75;58.32
9839;BME280;4958;48.150;11.506;2023-05-09T06:41:39;95763.34;;;15.61;58.47
9839;BME280;4958;48.150;11.506;2023-05-09T06:44:22;95766.94;;;15.73;58.59
9839;BME280;4958;48.150;11.506;2023-05-09T06:46:49;95764.50;;;15.84;58.87
9839;BME280;4958;48.150;11.506;2023-05-09T06:49:15;95760.63;;;16.00;58.11
9839;BME280;4958;48.150;11.506;2023-05-09T06:51:42;95763.28;;;15.94;57.80
9839;BME280;4958;48.150;11.506;2023-05-09T06:54:08;95755.28;;;15.95;57.72
9839;BME280;4958;48.150;11.506;2023-05-09T06:56:49;95746.97;;;16.18;58.33
9839;BME280;4958;48.150;11.506;2023-05-09T06:59:15;95743.75;;;16.29;57.54
9839;BME280;4958;48.150;11.506;2023-05-09T07:01:43;95749.53;;;16.31;57.20
9839;BME280;4958;48.150;11.506;2023-05-09T07:04:28;95751.34;;;16.31;57.89
9839;BME280;4958;48.150;11.506;2023-05-09T07:06:54;95749.66;;;16.43;57.67
9839;BME280;4958;48.150;11.506;2023-05-09T07:09:21;95752.03;;;16.51;57.89
9839;BME280;4958;48.150;11.506;2023-05-09T07:12:04;95740.97;;;16.55;56.57
9839;BME280;4958;48.150;11.506;2023-05-09T07:14:33;95741.63;;;16.51;57.15
9839;BME280;4958;48.150;11.506;2023-05-09T07:17:01;95738.84;;;16.46;57.49
9839;BME280;4958;48.150;11.506;2023-05-09T07:22:58;95738.34;;;16.69;57.68
9839;BME280;4958;48.150;11.506;2023-05-09T07:25:42;95728.13;;;16.74;56.51
9839;BME280;4958;48.150;11.506;2023-05-09T07:28:28;95725.41;;;16.87;56.48
9839;BME280;4958;48.150;11.506;2023-05-09T07:31:22;95719.38;;;16.93;56.99
9839;BME280;4958;48.150;11.506;2023-05-09T07:34:04;95715.97;;;16.92;55.91
9839;BME280;4958;48.150;11.506;2023-05-09T07:36:44;95723.25;;;16.77;56.15
9839;BME280;4958;48.150;11.506;2023-05-09T07:39:39;95717.81;;;16.85;56.30
9839;BME280;4958;48.150;11.506;2023-05-09T07:42:40;95713.63;;;16.84;58.41
9839;BME280;4958;48.150;11.506;2023-05-09T07:48:39;95706.69;;;17.21;56.55
9839;BME280;4958;48.150;11.506;2023-05-09T08:08:39;95688.97;;;18.21;54.86
9839;BME280;4958;48.150;11.506;2023-05-09T08:11:15;95678.56;;;18.33;55.31
9839;BME280;4958;48.150;11.506;2023-05-09T08:14:06;95685.81;;;18.61;54.42
9839;BME280;4958;48.150;11.506;2023-05-09T08:16:36;95682.88;;;18.69;54.69
9839;BME280;4958;48.150;11.506;2023-05-09T08:19:11;95675.66;;;18.83;54.04
9839;BME280;4958;48.150;11.506;2023-05-09T08:21:42;95677.13;;;19.14;54.04
9839;BME280;4958;48.150;11.506;2023-05-09T08:24:21;95672.22;;;19.29;52.86
9839;BME280;4958;48.150;11.506;2023-05-09T08:26:47;95665.19;;;19.41;52.24
9839;BME280;4958;48.150;11.506;2023-05-09T08:29:14;95676.75;;;19.45;52.57
9839;BME280;4958;48.150;11.506;2023-05-09T08:31:40;95667.81;;;19.41;52.38
9839;BME280;4958;48.150;11.506;2023-05-09T08:34:15;95665.50;;;19.45;52.06
9839;BME280;4958;48.150;11.506;2023-05-09T08:36:41;95657.59;;;19.51;53.23
9839;BME280;4958;48.150;11.506;2023-05-09T08:39:25;95664.47;;;19.69;52.71
9839;BME280;4958;48.150;11.506;2023-05-09T08:46:17;95644.16;;;19.99;52.13
9839;BME280;4958;48.150;11.506;2023-05-09T09:03:22;95617.53;;;20.02;51.22
9839;BME280;4958;48.150;11.506;2023-05-09T09:05:57;95615.22;;;20.34;50.46
9839;BME280;4958;48.150;11.506;2023-05-09T09:08:44;95610.59;;;20.70;49.69
9839;BME280;4958;48.150;11.506;2023-05-09T09:12:16;95610.97;;;20.95;50.35
9839;BME280;4958;48.150;11.506;2023-05-09T09:18:05;95604.50;;;21.20;48.82
9839;BME280;4958;48.150;11.506;2023-05-09T09:20:34;95606.22;;;21.31;47.62
9839;BME280;4958;48.150;11.506;2023-05-09T09:26:25;95592.44;;;21.41;48.95
9839;BME280;4958;48.150;11.506;2023-05-09T09:30:03;95596.16;;;21.23;48.13
9839;BME280;4958;48.150;11.506;2023-05-09T09:31:53;95589.09;;;21.45;48.36
9839;BME280;4958;48.150;11.506;2023-05-09T09:34:30;95587.75;;;21.64;47.75
9839;BME280;4958;48.150;11.506;2023-05-09T09:36:57;95573.47;;;21.55;48.51
9839;BME280;4958;48.150;11.506;2023-05-09T09:39:27;95576.22;;;21.65;48.08
9839;BME280;4958;48.150;11.506;2023-05-09T09:41:54;95561.59;;;21.69;47.71
9839;BME280;4958;48.150;11.506;2023-05-09T09:44:44;95563.63;;;21.62;48.26
9839;BME280;4958;48.150;11.506;2023-05-09T09:47:29;95559.28;;;22.00;47.61
9839;BME280;4958;48.150;11.506;2023-05-09T09:50:16;95557.66;;;22.21;46.18
9839;BME280;4958;48.150;11.506;2023-05-09T09:53:04;95548.06;;;22.36;47.20
9839;BME280;4958;48.150;11.506;2023-05-09T09:55:37;95545.53;;;22.47;47.47
9839;BME280;4958;48.150;11.506;2023-05-09T09:58:20;95534.19;;;22.78;46.89
9839;BME280;4958;48.150;11.506;2023-05-09T10:01:07;95537.41;;;22.90;45.96
9839;BME280;4958;48.150;11.506;2023-05-09T10:03:36;95533.47;;;22.88;45.39
9839;BME280;4958;48.150;11.506;2023-05-09T10:06:11;95538.25;;;23.01;46.43
9839;BME280;4958;48.150;11.506;2023-05-09T10:08:49;95526.94;;;22.95;46.30
9839;BME280;4958;48.150;11.506;2023-05-09T10:11:16;95525.88;;;22.96;45.40
9839;BME280;4958;48.150;11.506;2023-05-09T10:13:43;95519.63;;;23.02;44.54
9839;BME280;4958;48.150;11.506;2023-05-09T10:16:13;95517.19;;;22.91;45.37
9839;BME280;4958;48.150;11.506;2023-05-09T10:18:55;95509.09;;;22.97;45.25
9839;BME280;4958;48.150;11.506;2023-05-09T10:21:26;95498.03;;;22.90;45.46
9839;BME280;4958;48.150;11.506;2023-05-09T10:27:21;95497.13;;;23.27;44.81
9839;BME280;4958;48.150;11.506;2023-05-09T10:33:45;95485.84;;;23.36;44.33
9839;BME280;4958;48.150;11.506;2023-05-09T10:46:11;95465.25;;;23.03;46.33
9839;BME280;4958;48.150;11.506;2023-05-09T10:48:39;95461.13;;;23.22;46.26
9839;BME280;4958;48.150;11.506;2023-05-09T10:51:31;95450.63;;;23.22;45.35
9839;BME280;4958;48.150;11.506;2023-05-09T10:54:25;95450.16;;;23.46;45.53
9839;BME280;4958;48.150;11.506;2023-05-09T10:56:54;95445.44;;;23.58;45.49
9839;BME280;4958;48.150;11.506;2023-05-09T10:59:53;95444.16;;;23.65;45.13
9839;BME280;4958;48.150;11.506;2023-05-09T11:03:05;95430.66;;;23.31;44.13
9839;BME280;4958;48.150;11.506;2023-05-09T11:05:37;95423.44;;;22.81;45.31
9839;BME280;4958;48.150;11.506;2023-05-09T11:19:03;95395.16;;;23.08;45.80
9839;BME280;4958;48.150;11.506;2023-05-09T11:21:58;95389.16;;;23.33;45.67
9839;BME280;4958;48.150;11.506;2023-05-09T11:24:25;95398.03;;;23.12;45.39
9839;BME280;4958;48.150;11.506;2023-05-09T11:27:25;95380.66;;;22.91;46.05
9839;BME280;4958;48.150;11.506;2023-05-09T11:30:19;95390.69;;;23.04;46.19
9839;BME280;4958;48.150;11.506;2023-05-09T11:43:19;95367.25;;;22.92;45.33
9839;BME280;4958;48.150;11.506;2023-05-09T11:46:20;95366.25;;;23.14;45.86
9839;BME280;4958;48.150;11.506;2023-05-09T11:48:48;95360.25;;;23.23;45.24
9839;BME280;4958;48.150;11.506;2023-05-09T11:51:34;95365.78;;;23.27;45.45
9839;BME280;4958;48.150;11.506;2023-05-09T11:54:41;95353.41;;;23.17;46.45
9839;BME280;4958;48.150;11.506;2023-05-09T11:57:25;95354.22;;;23.43;45.80
9839;BME280;4958;48.150;11.506;2023-05-09T11:59:53;95354.50;;;23.57;45.38
9839;BME280;4958;48.150;11.506;2023-05-09T12:02:42;95345.03;;;23.56;44.79
9839;BME280;4958;48.150;11.506;2023-05-09T12:08:07;95338.75;;;23.62;45.40
9839;BME280;4958;48.150;11.506;2023-05-09T12:10:36;95332.16;;;23.80;45.84
9839;BME280;4958;48.150;11.506;2023-05-09T12:13:03;95331.31;;;23.99;45.31
9839;BME280;4958;48.150;11.506;2023-05-09T12:15:36;95324.16;;;24.15;44.24
9839;BME280;4958;48.150;11.506;2023-05-09T12:18:09;95309.16;;;24.21;44.54
9839;BME280;4958;48.150;11.506;2023-05-09T12:20:41;95309.19;;;24.10;43.57
9839;BME280;4958;48.150;11.506;2023-05-09T12:23:22;95306.13;;;23.78;43.88
9839;BME280;4958;48.150;11.506;2023-05-09T12:25:56;95305.28;;;23.88;44.13
9839;BME280;4958;48.150;11.506;2023-05-09T12:28:23;95298.97;;;23.99;44.21
9839;BME280;4958;48.150;11.506;2023-05-09T12:31:09;95295.25;;;24.10;44.68
9839;BME280;4958;48.150;11.506;2023-05-09T12:33:37;95287.09;;;24.11;44.68
9839;BME280;4958;48.150;11.506;2023-05-09T12:36:05;95286.88;;;23.98;44.33
9839;BME280;4958;48.150;11.506;2023-05-09T12:39:01;95281.81;;;24.11;44.26
9839;BME280;4958;48.150;11.506;2023-05-09T12:41:53;95279.78;;;23.98;43.86
9839;BME280;4958;48.150;11.506;2023-05-09T12:44:22;95275.56;;;23.92;43.94
9839;BME280;4958;48.150;11.506;2023-05-09T12:47:12;95269.84;;;23.75;43.93
9839;BME280;4958;48.150;11.506;2023-05-09T12:53:30;95254.47;;;24.13;43.54
9839;BME280;4958;48.150;11.506;2023-05-09T12:59:27;95262.34;;;24.13;43.37
9839;BME280;4958;48.150;11.506;2023-05-09T13:01:56;95244.19;;;24.11;44.60
9839;BME280;4958;48.150;11.506;2023-05-09T13:04:25;95239.00;;;23.96;43.45
9839;BME280;4958;48.150;11.506;2023-05-09T13:06:58;95236.13;;;23.87;44.43
9839;BME280;4958;48.150;11.506;2023-05-09T13:09:53;95236.22;;;23.62;44.52
9839;BME280;4958;48.150;11.506;2023-05-09T13:12:34;95233.75;;;23.96;45.24
9839;BME280;4958;48.150;11.506;2023-05-09T13:15:03;95234.00;;;24.04;43.92
9839;BME280;4958;48.150;11.506;2023-05-09T13:17:30;95224.44;;;24.19;44.44
9839;BME280;4958;48.150;11.506;2023-05-09T13:20:07;95219.81;;;23.95;43.36
9839;BME280;4958;48.150;11.506;2023-05-09T13:26:09;95207.97;;;23.93;43.63
9839;BME280;4958;48.150;11.506;2023-05-09T13:28:48;95210.78;;;24.11;44.54
9839;BME280;4958;48.150;11.506;2023-05-09T13:31:23;95193.94;;;24.13;44.22
9839;BME280;4958;48.150;11.506;2023-05-09T13:34:15;95199.00;;;24.04;43.75
9839;BME280;4958;48.150;11.506;2023-05-09T13:37:04;95195.25;;;24.20;44.24
9839;BME280;4958;48.150;11.506;2023-05-09T13:41:41;95193.50;;;24.00;43.52
9839;BME280;4958;48.150;11.506;2023-05-09T13:42:35;95189.06;;;23.91;44.01
9839;BME280;4958;48.150;11.506;2023-05-09T13:45:07;95190.09;;;23.90;43.82
9839;BME280;4958;48.150;11.506;2023-05-09T13:47:50;95181.41;;;23.94;44.06
9839;BME280;4958;48.150;11.506;2023-05-09T13:50:17;95177.19;;;24.03;43.55
9839;BME280;4958;48.150;11.506;2023-05-09T13:52:49;95171.84;;;24.14;43.47
9839;BME280;4958;48.150;11.506;2023-05-09T13:55:34;95165.19;;;23.82;43.46
9839;BME280;4958;48.150;11.506;2023-05-09T13:58:01;95168.41;;;23.59;43.74
9839;BME280;4958;48.150;11.506;2023-05-09T14:00:47;95164.22;;;23.53;43.86
9839;BME280;4958;48.150;11.506;2023-05-09T14:03:20;95163.94;;;23.59;43.65
9839;BME280;4958;48.150;11.506;2023-05-09T14:08:32;95150.72;;;23.74;43.70
9839;BME280;4958;48.150;11.506;2023-05-09T14:10:59;95132.53;;;23.88;43.49
9839;BME280;4958;48.150;11.506;2023-05-09T14:16:18;95142.41;;;24.11;42.66
9839;BME280;4958;48.150;11.506;2023-05-09T14:19:12;95145.03;;;24.11;43.11
9839;BME280;4958;48.150;11.506;2023-05-09T14:22:03;95139.59;;;23.98;42.79
9839;BME280;4958;48.150;11.506;2023-05-09T14:24:31;95138.50;;;24.04;44.28
9839;BME280;4958;48.150;11.506;2023-05-09T14:27:05;95135.91;;;23.99;43.31
9839;BME280;4958;48.150;11.506;2023-05-09T14:29:50;95128.00;;;24.04;43.52
9839;BME280;4958;48.150;11.506;2023-05-09T14:32:22;95128.56;;;23.91;42.61
9839;BME280;4958;48.150;11.506;2023-05-09T14:35:07;95122.53;;;23.90;43.41
9839;BME280;4958;48.150;11.506;2023-05-09T14:37:59;95117.06;;;23.76;42.73
9839;BME280;4958;48.150;11.506;2023-05-09T14:41:00;95110.00;;;23.67;42.82
9839;BME280;4958;48.150;11.506;2023-05-09T14:43:51;95111.03;;;23.71;43.09
9839;BME280;4958;48.150;11.506;2023-05-09T14:46:41;95097.97;;;23.56;43.58
9839;BME280;4958;48.150;11.506;2023-05-09T14:49:15;95100.91;;;23.34;43.05
9839;BME280;4958;48.150;11.506;2023-05-09T14:51:44;95098.22;;;23.49;43.02
9839;BME280;4958;48.150;11.506;2023-05-09T14:54:21;95087.78;;;23.34;43.05
9839;BME280;4958;48.150;11.506;2023-05-09T14:57:30;95087.44;;;23.51;43.27
9839;BME280;4958;48.150;11.506;2023-05-09T15:00:07;95084.94;;;23.20;42.89
9839;BME280;4958;48.150;11.506;2023-05-09T15:03:03;95082.84;;;23.12;43.70
9839;BME280;4958;48.150;11.506;2023-05-09T15:05:47;95076.84;;;23.01;43.32
9839;BME280;4958;48.150;11.506;2023-05-09T15:08:30;95073.41;;;23.11;44.00
9839;BME280;4958;48.150;11.506;2023-05-09T15:11:03;95080.50;;;23.16;43.51
9839;BME280;4958;48.150;11.506;2023-05-09T15:13:41;95073.41;;;23.16;44.00
9839;BME280;4958;48.150;11.506;2023-05-09T15:16:24;95071.56;;;23.12;42.90
9839;BME280;4958;48.150;11.506;2023-05-09T15:19:00;95071.88;;;22.95;43.51
9839;BME280;4958;48.150;11.506;2023-05-09T15:21:56;95071.13;;;22.89;43.20
9839;BME280;4958;48.150;11.506;2023-05-09T15:24:37;95062.69;;;22.72;43.05
9839;BME280;4958;48.150;11.506;2023-05-09T15:27:06;95061.16;;;22.61;44.13
9839;BME280;4958;48.150;11.506;2023-05-09T15:30:00;95059.34;;;22.51;44.17
9839;BME280;4958;48.150;11.506;2023-05-09T15:32:41;95058.28;;;22.42;44.13
9839;BME280;4958;48.150;11.506;2023-05-09T15:35:08;95053.56;;;22.29;44.61
9839;BME280;4958;48.150;11.506;2023-05-09T15:37:37;95062.72;;;22.21;44.50
9839;BME280;4958;48.150;11.506;2023-05-09T15:40:04;95052.22;;;22.01;44.00
9839;BME280;4958;48.150;11.506;2023-05-09T15:42:31;95052.22;;;22.01;44.53
9839;BME280;4958;48.150;11.506;2023-05-09T15:45:20;95051.94;;;21.97;44.95
9839;BME280;4958;48.150;11.506;2023-05-09T15:47:53;95047.19;;;21.94;45.16
9839;BME280;4958;48.150;11.506;2023-05-09T15:50:19;95046.94;;;21.96;45.18
9839;BME280;4958;48.150;11.506;2023-05-09T15:53:07;95044.31;;;21.96;45.11
9839;BME280;4958;48.150;11.506;2023-05-09T15:55:36;95039.31;;;21.79;45.30
9839;BME280;4958;48.150;11.506;2023-05-09T15:58:03;95035.66;;;21.80;45.36
9839;BME280;4958;48.150;11.506;2023-05-09T16:00:31;95033.81;;;21.70;45.38